Time;durP1;ratioP1;P1;durP2;ratioP2;P2;SDS_P1;SDS_P2;PMS_P1;PMS_P2;Temp;Humidity;BMP_temperature;BMP_pressure;BME280_temperature;BME280_humidity;BME280_pressure;Samples;Min_cycle;Max_cycle;Signal;HPM_P1;HPM_P2
2021/01/04 00:00:52;;;;;;;13.40;8.23;;;7.40;74.20;;;;;;5005470;28;20411;-71
2021/01/04 00:03:39;;;;;;;15.50;7.93;;;7.40;74.00;;;;;;4995377;28;20029;-71
2021/01/04 00:06:25;;;;;;;16.98;9.18;;;7.50;73.90;;;;;;4996708;28;20049;-71
2021/01/04 00:08:59;;;;;;;17.05;10.55;;;7.50;73.80;;;;;;4999616;28;20018;-71
2021/01/04 00:11:33;;;;;;;16.37;9.43;;;7.50;73.80;;;;;;5010968;28;20061;-71
2021/01/04 00:14:26;;;;;;;14.43;8.05;;;7.50;73.80;;;;;;5010031;28;20101;-71
2021/01/04 00:17:01;;;;;;;16.63;10.73;;;7.50;73.80;;;;;;5004810;28;20073;-71
2021/01/04 00:19:42;;;;;;;14.50;8.75;;;7.50;73.90;;;;;;5009482;28;20036;-71
2021/01/04 00:22:22;;;;;;;13.73;8.47;;;7.40;74.00;;;;;;5010149;28;20389;-71
2021/01/04 00:25:16;;;;;;;15.80;9.38;;;7.40;74.20;;;;;;5025491;28;20026;-71
2021/01/04 00:27:52;;;;;;;13.80;8.47;;;7.30;74.30;;;;;;5006741;28;20030;-71
2021/01/04 00:30:42;;;;;;;17.73;9.57;;;7.30;74.50;;;;;;5011742;28;20053;-70
2021/01/04 00:33:38;;;;;;;14.73;9.13;;;7.30;74.50;;;;;;5008614;28;20057;-71
2021/01/04 00:36:14;;;;;;;16.03;9.97;;;7.20;74.60;;;;;;4997323;28;20559;-71
2021/01/04 00:39:11;;;;;;;15.50;8.37;;;7.20;74.60;;;;;;5009514;28;20056;-71
2021/01/04 00:42:10;;;;;;;14.60;8.57;;;7.30;74.60;;;;;;5002893;28;20023;-71
2021/01/04 00:44:48;;;;;;;15.93;8.10;;;7.30;74.50;;;;;;5008661;28;20042;-72
2021/01/04 00:47:30;;;;;;;16.73;9.40;;;7.20;74.70;;;;;;5003992;28;20117;-70
2021/01/04 00:50:06;;;;;;;17.48;9.27;;;7.20;74.80;;;;;;4999503;28;20041;-71
2021/01/04 00:52:44;;;;;;;15.47;8.73;;;7.20;74.90;;;;;;4993995;28;20023;-71
2021/01/04 00:55:44;;;;;;;18.13;9.17;;;7.20;75.00;;;;;;5003551;28;20380;-70
2021/01/04 00:58:59;;;;;;;15.03;9.63;;;7.20;75.10;;;;;;5009621;28;20121;-71
2021/01/04 01:01:35;;;;;;;15.18;7.80;;;7.10;75.10;;;;;;5010724;28;20040;-71
2021/01/04 01:04:11;;;;;;;16.03;9.47;;;7.10;75.20;;;;;;5008980;28;20084;-70
2021/01/04 01:06:42;;;;;;;13.53;8.80;;;7.10;75.20;;;;;;5011230;28;20397;-71
2021/01/04 01:09:10;;;;;;;14.50;8.33;;;7.10;75.20;;;;;;4994336;28;20034;-71
2021/01/04 01:12:02;;;;;;;14.60;9.40;;;7.20;75.20;;;;;;5011817;28;20038;-71
2021/01/04 01:14:55;;;;;;;15.83;8.77;;;7.20;75.10;;;;;;5002456;28;20022;-71
2021/01/04 01:17:45;;;;;;;15.15;9.13;;;7.20;75.00;;;;;;5012714;28;20170;-71
2021/01/04 01:20:15;;;;;;;15.37;8.10;;;7.20;75.00;;;;;;5009793;28;20092;-70
2021/01/04 01:22:42;;;;;;;15.80;9.23;;;7.10;75.00;;;;;;5010974;28;20212;-71
2021/01/04 01:25:18;;;;;;;14.10;8.30;;;7.10;75.00;;;;;;5009137;28;20041;-70
2021/01/04 01:28:14;;;;;;;13.57;7.80;;;7.10;75.10;;;;;;5009764;28;20133;-71
2021/01/04 01:31:17;;;;;;;14.13;7.53;;;7.10;75.20;;;;;;5006130;28;20041;-71
2021/01/04 01:33:55;;;;;;;12.83;7.70;;;7.10;75.40;;;;;;5000047;28;20045;-70
2021/01/04 01:36:27;;;;;;;14.27;8.13;;;7.10;75.40;;;;;;5004957;28;20448;-72
2021/01/04 01:39:30;;;;;;;11.85;8.00;;;7.10;75.40;;;;;;5006104;28;20026;-71
2021/01/04 01:42:23;;;;;;;13.17;8.07;;;7.10;75.30;;;;;;4998801;28;20022;-70
2021/01/04 01:45:07;;;;;;;13.00;7.90;;;7.10;75.50;;;;;;5005409;28;20076;-71
2021/01/04 01:47:57;;;;;;;13.93;8.17;;;7.00;75.50;;;;;;5006697;28;20030;-70
2021/01/04 01:50:42;;;;;;;19.30;8.90;;;7.00;75.70;;;;;;4987569;28;20542;-71
2021/01/04 01:53:27;;;;;;;14.50;7.60;;;6.90;75.70;;;;;;4998392;28;20102;-70
2021/01/04 01:56:08;;;;;;;12.60;8.00;;;6.90;75.80;;;;;;5008252;28;20061;-70
2021/01/04 01:59:02;;;;;;;13.10;8.27;;;6.90;76.00;;;;;;5000483;28;20488;-71
2021/01/04 02:01:48;;;;;;;13.33;8.07;;;7.00;76.00;;;;;;5008811;28;20022;-70
2021/01/04 02:04:33;;;;;;;13.20;8.57;;;6.90;75.80;;;;;;5007819;28;20141;-71
2021/01/04 02:07:24;;;;;;;14.60;8.20;;;6.90;75.90;;;;;;5010056;28;20051;-71
2021/01/04 02:09:55;;;;;;;14.40;8.50;;;6.90;76.10;;;;;;5008912;28;20030;-70
2021/01/04 02:12:21;;;;;;;13.30;7.77;;;6.90;76.20;;;;;;5009375;28;20065;-71
2021/01/04 02:15:12;;;;;;;12.03;7.43;;;6.80;76.10;;;;;;5004813;28;20057;-71
2021/01/04 02:18:21;;;;;;;14.77;8.07;;;6.80;76.30;;;;;;5009881;28;20104;-70
2021/01/04 02:20:59;;;;;;;13.20;7.67;;;6.70;76.40;;;;;;4989758;28;20054;-70
2021/01/04 02:23:41;;;;;;;11.17;7.67;;;6.70;76.60;;;;;;4998946;28;20460;-70
2021/01/04 02:26:14;;;;;;;11.83;7.60;;;6.70;76.70;;;;;;5008213;28;20483;-70
2021/01/04 02:29:03;;;;;;;14.87;7.97;;;6.70;76.90;;;;;;5008305;28;20026;-71
2021/01/04 02:31:31;;;;;;;13.37;8.50;;;6.80;76.80;;;;;;4996840;28;20038;-70
2021/01/04 02:33:58;;;;;;;13.63;8.00;;;6.80;76.70;;;;;;5007149;28;20112;-71
2021/01/04 02:36:26;;;;;;;13.17;8.30;;;6.80;76.80;;;;;;5007177;28;20034;-71
2021/01/04 02:39:04;;;;;;;12.20;7.87;;;6.80;76.90;;;;;;5008795;28;20494;-70
2021/01/04 02:42:02;;;;;;;11.70;7.30;;;6.80;77.00;;;;;;5009944;28;20044;-70
2021/01/04 02:44:29;;;;;;;11.63;7.20;;;6.80;77.00;;;;;;5005182;28;20093;-71
2021/01/04 02:47:33;;;;;;;11.90;6.63;;;6.80;76.90;;;;;;5008123;28;20037;-70
2021/01/04 02:50:31;;;;;;;12.43;7.10;;;6.80;76.80;;;;;;4984246;28;20038;-70
2021/01/04 02:53:12;;;;;;;9.93;6.00;;;6.80;76.80;;;;;;5005366;28;20030;-70
2021/01/04 02:55:57;;;;;;;11.83;7.37;;;6.80;76.60;;;;;;4997036;28;20023;-70
2021/01/04 02:58:58;;;;;;;10.93;6.33;;;6.80;76.40;;;;;;5000073;28;20033;-71
2021/01/04 03:01:43;;;;;;;11.13;6.53;;;6.80;76.70;;;;;;5008391;28;20045;-70
2021/01/04 03:04:16;;;;;;;11.13;6.90;;;6.70;76.70;;;;;;5007801;28;20022;-70
2021/01/04 03:06:48;;;;;;;9.75;6.00;;;6.80;76.90;;;;;;5011701;28;20479;-71
2021/01/04 03:09:14;;;;;;;11.93;7.17;;;6.70;76.70;;;;;;5011674;28;20037;-70
2021/01/04 03:11:43;;;;;;;12.30;6.20;;;6.70;76.70;;;;;;5008425;28;20030;-70
2021/01/04 03:14:41;;;;;;;12.67;6.97;;;6.70;76.90;;;;;;5007499;28;20041;-70
2021/01/04 03:17:18;;;;;;;12.10;6.63;;;6.70;76.90;;;;;;5012282;28;20029;-71
2021/01/04 03:19:47;;;;;;;11.27;6.40;;;6.70;77.00;;;;;;5007365;28;20034;-70
2021/01/04 03:22:15;;;;;;;11.87;7.17;;;6.70;77.10;;;;;;5004382;28;20116;-71
2021/01/04 03:24:47;;;;;;;11.40;7.03;;;6.70;77.10;;;;;;5011162;28;20538;-70
2021/01/04 03:27:18;;;;;;;12.87;7.60;;;6.70;77.00;;;;;;5012441;28;20022;-71
2021/01/04 03:29:44;;;;;;;11.60;7.00;;;6.80;76.90;;;;;;5011992;28;20040;-70
2021/01/04 03:32:09;;;;;;;11.87;6.50;;;6.80;76.80;;;;;;5012156;28;20038;-70
2021/01/04 03:34:35;;;;;;;12.33;6.87;;;6.70;76.70;;;;;;5010218;28;20049;-71
2021/01/04 03:37:00;;;;;;;10.27;5.97;;;6.70;76.80;;;;;;5011624;28;20037;-70
2021/01/04 03:39:29;;;;;;;11.60;7.07;;;6.70;77.00;;;;;;5010887;28;20038;-71
2021/01/04 03:41:59;;;;;;;12.83;8.00;;;6.60;76.90;;;;;;5011503;28;20468;-70
2021/01/04 03:44:28;;;;;;;10.73;6.47;;;6.60;77.00;;;;;;5007189;28;20132;-71
2021/01/04 03:46:54;;;;;;;11.00;6.53;;;6.60;77.10;;;;;;5008111;28;20121;-70
2021/01/04 03:49:20;;;;;;;10.30;6.03;;;6.60;77.20;;;;;;5010649;28;20065;-70
2021/01/04 03:51:54;;;;;;;13.33;7.07;;;6.60;77.30;;;;;;5013042;28;20409;-71
2021/01/04 03:54:19;;;;;;;11.47;5.93;;;6.60;77.30;;;;;;5011625;28;20133;-71
2021/01/04 03:56:45;;;;;;;10.90;6.77;;;6.60;77.20;;;;;;4994481;28;20513;-71
2021/01/04 03:59:12;;;;;;;11.23;6.87;;;6.60;77.20;;;;;;5012579;28;20427;-71
2021/01/04 04:01:38;;;;;;;11.70;6.60;;;6.60;77.30;;;;;;5008246;28;20117;-71
2021/01/04 04:04:04;;;;;;;10.23;6.10;;;6.60;77.30;;;;;;5006113;28;20121;-71
2021/01/04 04:06:29;;;;;;;10.27;6.47;;;6.50;77.30;;;;;;5011075;28;20671;-71
2021/01/04 04:08:55;;;;;;;9.20;5.97;;;6.60;77.30;;;;;;5011724;28;20042;-71
2021/01/04 04:11:21;;;;;;;9.73;6.60;;;6.60;77.20;;;;;;5005715;28;20084;-71
2021/01/04 04:13:47;;;;;;;11.90;7.17;;;6.60;77.00;;;;;;5006551;28;20052;-71
2021/01/04 04:16:14;;;;;;;9.60;5.67;;;6.60;77.20;;;;;;5011863;28;20026;-71
2021/01/04 04:18:40;;;;;;;9.70;4.97;;;6.60;77.30;;;;;;5011450;28;20038;-71
2021/01/04 04:21:06;;;;;;;8.87;4.93;;;6.60;77.40;;;;;;5009185;28;20109;-71
2021/01/04 04:23:31;;;;;;;9.17;5.60;;;6.60;77.40;;;;;;5004875;28;20175;-71
2021/01/04 04:25:57;;;;;;;9.87;5.77;;;6.60;77.40;;;;;;5009124;28;20113;-70
2021/01/04 04:28:22;;;;;;;10.57;6.23;;;6.60;77.60;;;;;;5011966;28;20056;-71
2021/01/04 04:30:48;;;;;;;11.53;6.17;;;6.60;77.50;;;;;;5011169;28;20115;-71
2021/01/04 04:33:14;;;;;;;10.37;6.20;;;6.60;77.60;;;;;;5001420;28;20049;-70
2021/01/04 04:35:39;;;;;;;10.20;6.00;;;6.60;77.50;;;;;;5011584;28;20362;-71
2021/01/04 04:38:05;;;;;;;11.70;6.27;;;6.60;77.40;;;;;;5011220;28;20084;-71
2021/01/04 04:40:33;;;;;;;11.87;5.97;;;6.60;77.50;;;;;;5011862;28;20061;-72
2021/01/04 04:43:11;;;;;;;9.97;5.93;;;6.60;77.80;;;;;;5006286;28;20030;-71
2021/01/04 04:45:37;;;;;;;10.90;6.77;;;6.50;78.00;;;;;;5011451;28;20098;-71
2021/01/04 04:48:18;;;;;;;11.53;6.37;;;6.50;78.40;;;;;;5005932;28;20033;-71
2021/01/04 04:51:11;;;;;;;10.33;6.13;;;6.50;78.40;;;;;;5000972;28;20030;-71
2021/01/04 04:53:55;;;;;;;9.17;5.83;;;6.40;78.50;;;;;;5004439;28;20309;-71
2021/01/04 04:56:44;;;;;;;10.00;5.47;;;6.50;78.60;;;;;;5026296;28;20033;-70
2021/01/04 04:59:31;;;;;;;9.93;5.83;;;6.60;78.30;;;;;;5009024;28;20033;-71
2021/01/04 05:02:06;;;;;;;10.15;5.90;;;6.70;78.00;;;;;;5011108;28;20048;-71
2021/01/04 05:05:09;;;;;;;10.97;6.53;;;6.70;77.80;;;;;;5006153;28;20468;-71
2021/01/04 05:07:44;;;;;;;10.17;6.63;;;6.70;77.70;;;;;;5008475;28;20030;-71
2021/01/04 05:10:18;;;;;;;11.20;6.20;;;6.70;77.80;;;;;;4999933;28;20129;-71
2021/01/04 05:12:59;;;;;;;12.10;6.88;;;6.70;77.80;;;;;;5005791;28;20137;-71
2021/01/04 05:16:02;;;;;;;12.20;6.77;;;6.70;77.90;;;;;;5008948;28;20040;-71
2021/01/04 05:19:12;;;;;;;12.80;6.73;;;6.70;77.80;;;;;;5002256;28;20076;-70
2021/01/04 05:21:40;;;;;;;12.63;7.60;;;6.60;77.80;;;;;;5004617;28;20479;-71
2021/01/04 05:24:40;;;;;;;11.10;6.07;;;6.60;77.80;;;;;;5009694;28;20036;-70
2021/01/04 05:27:12;;;;;;;12.73;6.57;;;6.60;77.90;;;;;;5002784;28;20417;-71
2021/01/04 05:30:02;;;;;;;11.80;6.43;;;6.60;78.10;;;;;;5008973;28;20038;-70
2021/01/04 05:32:46;;;;;;;10.93;6.70;;;6.60;78.10;;;;;;5009182;28;20037;-71
2021/01/04 05:35:13;;;;;;;;;;;6.60;78.70;;;;;;5001978;28;20052;-71
2021/01/04 05:38:20;;;;;;;11.07;6.63;;;6.70;77.70;;;;;;5005763;28;20418;-71
2021/01/04 05:41:11;;;;;;;11.33;5.90;;;6.60;77.80;;;;;;5006108;28;20473;-71
2021/01/04 05:43:44;;;;;;;12.10;7.33;;;6.60;78.00;;;;;;5008033;28;20025;-71
2021/01/04 05:46:30;;;;;;;;;;;6.60;78.60;;;;;;5008127;28;20034;-71
2021/01/04 05:49:11;;;;;;;11.03;6.13;;;6.70;77.90;;;;;;5007239;28;20371;-71
2021/01/04 05:51:41;;;;;;;11.70;6.53;;;6.60;78.10;;;;;;5010391;28;20029;-70
2021/01/04 05:54:07;;;;;;;13.20;7.97;;;6.60;78.20;;;;;;5010261;28;20040;-71
2021/01/04 05:56:33;;;;;;;12.37;7.90;;;6.60;78.20;;;;;;5010606;28;20034;-70
2021/01/04 05:59:14;;;;;;;10.83;6.03;;;6.60;78.20;;;;;;5009214;28;20041;-71
2021/01/04 06:01:42;;;;;;;14.70;7.23;;;6.60;78.20;;;;;;5009534;28;20108;-71
2021/01/04 06:04:10;;;;;;;11.60;6.70;;;6.60;78.20;;;;;;5008111;28;20037;-71
2021/01/04 06:06:48;;;;;;;11.97;6.63;;;6.60;78.30;;;;;;5009881;28;20030;-71
2021/01/04 06:09:17;;;;;;;13.13;6.83;;;6.60;78.40;;;;;;5009119;28;20444;-71
2021/01/04 06:11:59;;;;;;;11.67;7.13;;;6.60;78.50;;;;;;5009623;28;20144;-71
2021/01/04 06:14:34;;;;;;;12.03;6.67;;;6.60;78.30;;;;;;5008263;28;20030;-71
2021/01/04 06:17:28;;;;;;;12.90;6.73;;;6.60;78.30;;;;;;5008674;28;20364;-71
2021/01/04 06:19:56;;;;;;;12.27;6.90;;;6.60;78.20;;;;;;4989704;28;20053;-71
2021/01/04 06:22:29;;;;;;;10.57;6.00;;;6.60;78.30;;;;;;4997820;28;20059;-71
2021/01/04 06:25:00;;;;;;;11.35;6.32;;;6.60;78.20;;;;;;5001774;28;20053;-71
2021/01/04 06:27:47;;;;;;;14.27;7.80;;;6.60;78.30;;;;;;5000791;28;20030;-71
2021/01/04 06:30:26;;;;;;;13.00;7.17;;;6.70;78.20;;;;;;5007884;28;20084;-71
2021/01/04 06:32:53;;;;;;;12.03;6.00;;;6.70;78.30;;;;;;5002003;28;20036;-70
2021/01/04 06:35:27;;;;;;;12.23;7.00;;;6.70;78.10;;;;;;4999931;28;20081;-70
2021/01/04 06:38:14;;;;;;;12.03;7.00;;;6.70;78.10;;;;;;4997873;28;20050;-70
2021/01/04 06:40:44;;;;;;;12.53;7.00;;;6.70;78.20;;;;;;5003514;28;20084;-70
2021/01/04 06:43:11;;;;;;;14.50;7.97;;;6.80;78.20;;;;;;5005078;28;20042;-70
2021/01/04 06:46:02;;;;;;;11.73;6.57;;;6.70;78.10;;;;;;5008022;28;20033;-70
2021/01/04 06:48:41;;;;;;;12.27;7.03;;;6.80;78.10;;;;;;5005409;28;20125;-70
2021/01/04 06:51:43;;;;;;;12.77;6.93;;;6.80;78.00;;;;;;5005901;28;20454;-70
2021/01/04 06:54:50;;;;;;;14.40;7.50;;;6.80;77.90;;;;;;5007882;28;20034;-70
2021/01/04 06:57:56;;;;;;;17.23;8.83;;;6.70;77.90;;;;;;4990613;28;20031;-70
2021/01/04 07:00:50;;;;;;;15.80;8.53;;;6.70;78.10;;;;;;4999219;28;20057;-70
2021/01/04 07:03:16;;;;;;;;;;;6.70;78.80;;;;;;5002617;28;20069;-70
2021/01/04 07:06:20;;;;;;;15.17;8.00;;;6.80;77.90;;;;;;5007465;28;19979;-70
2021/01/04 07:09:11;;;;;;;19.05;10.52;;;6.70;77.80;;;;;;4975797;28;20038;-70
2021/01/04 07:11:40;;;;;;;17.70;9.53;;;6.70;78.00;;;;;;5005497;28;20033;-70
2021/01/04 07:14:15;;;;;;;18.17;10.20;;;6.70;78.10;;;;;;5001793;28;20026;-70
2021/01/04 07:17:08;;;;;;;16.70;9.47;;;6.70;78.10;;;;;;5005340;28;20030;-70
2021/01/04 07:19:59;;;;;;;16.50;9.88;;;6.70;78.20;;;;;;4997297;28;20084;-72
2021/01/04 07:22:24;;;;;;;15.40;8.83;;;6.70;78.20;;;;;;5005056;28;20367;-70
2021/01/04 07:24:59;;;;;;;18.20;9.93;;;6.70;78.20;;;;;;5007490;28;20041;-69
2021/01/04 07:27:49;;;;;;;17.70;10.77;;;6.60;78.10;;;;;;5008112;28;20022;-70
2021/01/04 07:30:41;;;;;;;16.93;9.70;;;6.60;78.20;;;;;;4998865;28;20034;-70
2021/01/04 07:33:28;;;;;;;15.77;8.90;;;6.60;78.20;;;;;;5000633;28;20088;-69
2021/01/04 07:36:05;;;;;;;15.87;8.43;;;6.60;78.30;;;;;;4997764;28;20500;-70
2021/01/04 07:38:39;;;;;;;16.47;8.77;;;6.60;78.40;;;;;;5024429;28;20030;-71
2021/01/04 07:41:36;;;;;;;16.27;9.67;;;6.70;78.40;;;;;;5002276;28;20029;-70
2021/01/04 07:44:02;;;;;;;16.90;9.13;;;6.70;78.30;;;;;;5005461;28;20053;-70
2021/01/04 07:46:39;;;;;;;16.17;9.60;;;6.70;78.30;;;;;;4997180;28;20065;-70
2021/01/04 07:49:42;;;;;;;16.97;9.10;;;6.70;78.30;;;;;;4989485;28;20032;-70
2021/01/04 07:52:29;;;;;;;16.20;8.77;;;6.60;78.40;;;;;;4990337;28;20045;-70
2021/01/04 07:55:29;;;;;;;16.13;8.37;;;6.60;78.50;;;;;;4990133;28;20045;-70
2021/01/04 07:58:32;;;;;;;14.50;8.13;;;6.60;78.50;;;;;;4992820;28;20472;-70
2021/01/04 08:01:13;;;;;;;15.47;8.10;;;6.60;78.60;;;;;;5001570;28;20038;-69
2021/01/04 08:03:57;;;;;;;16.20;9.00;;;6.50;78.70;;;;;;4990594;28;20038;-70
2021/01/04 08:07:27;;;;;;;15.07;7.73;;;6.50;78.80;;;;;;4998061;28;20026;-70
2021/01/04 08:10:16;;;;;;;16.43;10.40;;;6.60;78.70;;;;;;4966517;28;20154;-70
2021/01/04 08:12:48;;;;;;;16.43;8.90;;;6.60;78.40;;;;;;5000142;28;20061;-70
2021/01/04 08:15:31;;;;;;;14.90;8.63;;;6.60;78.70;;;;;;5007359;28;20026;-70
2021/01/04 08:18:06;;;;;;;14.75;8.27;;;6.60;78.70;;;;;;5010421;28;20037;-71
2021/01/04 08:20:33;;;;;;;14.03;8.00;;;6.60;78.70;;;;;;5002706;28;20128;-75
2021/01/04 08:23:11;;;;;;;14.30;8.33;;;6.60;78.70;;;;;;5010077;28;20038;-75
2021/01/04 08:26:25;;;;;;;14.63;8.13;;;6.70;78.70;;;;;;4990260;28;20077;-73
2021/01/04 08:29:31;;;;;;;15.40;8.40;;;6.70;78.60;;;;;;4967623;28;20488;-74
2021/01/04 08:32:18;;;;;;;16.47;8.93;;;6.80;78.50;;;;;;4970637;28;20054;-75
2021/01/04 08:34:46;;;;;;;15.93;8.90;;;6.80;78.60;;;;;;4991258;28;20053;-74
2021/01/04 08:37:16;;;;;;;18.27;9.27;;;6.80;78.70;;;;;;4991709;28;20122;-74
2021/01/04 08:39:51;;;;;;;14.80;8.00;;;6.80;78.60;;;;;;4989613;28;20038;-73
2021/01/04 08:42:20;;;;;;;13.83;7.97;;;6.80;78.70;;;;;;4989740;28;20033;-73
2021/01/04 08:45:08;;;;;;;15.37;8.03;;;6.80;78.80;;;;;;4996507;28;20080;-74
2021/01/04 08:47:35;;;;;;;15.00;8.97;;;6.80;78.70;;;;;;4997988;28;20734;-74
2021/01/04 08:50:08;;;;;;;15.03;8.17;;;7.30;79.00;;;;;;4989537;28;20130;-73
2021/01/04 08:52:48;;;;;;;17.53;9.73;;;6.80;78.70;;;;;;4989488;28;20073;-73
2021/01/04 08:55:44;;;;;;;14.10;8.20;;;6.80;78.70;;;;;;4992066;28;20033;-73
2021/01/04 08:58:19;;;;;;;16.97;8.60;;;6.80;78.50;;;;;;4982963;28;20141;-73
2021/01/04 09:01:19;;;;;;;16.30;9.33;;;6.80;78.60;;;;;;4993714;28;20537;-74
2021/01/04 09:03:46;;;;;;;18.40;8.93;;;6.80;78.70;;;;;;4987611;28;20069;-73
2021/01/04 09:06:22;;;;;;;15.53;8.33;;;6.80;78.80;;;;;;4989990;28;20099;-73
2021/01/04 09:08:52;;;;;;;15.77;8.63;;;6.80;78.80;;;;;;4988012;28;20034;-73
2021/01/04 09:11:19;;;;;;;16.30;9.00;;;6.80;78.80;;;;;;4989990;28;20057;-74
2021/01/04 09:13:47;;;;;;;16.10;8.53;;;6.80;78.80;;;;;;4990835;28;20476;-74
2021/01/04 09:16:30;;;;;;;17.20;8.93;;;6.80;78.70;;;;;;4985714;28;20124;-74
2021/01/04 09:19:26;;;;;;;18.60;8.48;;;6.80;78.60;;;;;;4985952;28;20106;-74
2021/01/04 09:22:10;;;;;;;15.97;8.33;;;6.80;78.80;;;;;;4981830;28;20053;-73
2021/01/04 09:24:42;;;;;;;20.98;10.18;;;6.90;78.80;;;;;;4992699;28;20034;-74
2021/01/04 09:27:33;;;;;;;16.83;9.40;;;6.90;78.80;;;;;;4993123;28;20704;-74
2021/01/04 09:30:04;;;;;;;17.23;9.13;;;6.80;78.80;;;;;;4986369;28;20042;-69
2021/01/04 09:32:39;;;;;;;17.17;9.63;;;6.90;78.80;;;;;;4987418;28;20162;-75
2021/01/04 09:35:25;;;;;;;17.23;10.33;;;6.90;78.70;;;;;;4988301;28;20069;-75
2021/01/04 09:38:21;;;;;;;16.87;9.07;;;6.90;78.70;;;;;;4984887;28;20027;-70
2021/01/04 09:40:50;;;;;;;13.57;7.60;;;7.00;78.70;;;;;;4988823;28;20033;-75
2021/01/04 09:43:21;;;;;;;17.33;7.70;;;6.90;78.80;;;;;;4989739;28;20034;-73
2021/01/04 09:45:47;;;;;;;17.63;10.30;;;7.00;78.90;;;;;;4995269;28;20212;-74
2021/01/04 09:48:25;;;;;;;15.57;8.10;;;7.00;78.70;;;;;;4971554;28;20153;-74
2021/01/04 09:51:00;;;;;;;16.90;8.67;;;7.00;78.50;;;;;;4995885;28;20042;-74
2021/01/04 09:53:34;;;;;;;15.20;8.77;;;7.00;78.60;;;;;;4992012;28;20038;-78
2021/01/04 09:56:04;;;;;;;16.20;8.60;;;7.00;78.70;;;;;;4994450;28;20163;-75
2021/01/04 09:58:30;;;;;;;13.88;8.15;;;7.00;78.70;;;;;;4986669;28;20030;-77
2021/01/04 10:01:16;;;;;;;18.67;8.70;;;7.00;78.60;;;;;;4994133;28;20123;-77
2021/01/04 10:03:53;;;;;;;17.37;8.60;;;7.10;78.80;;;;;;5008250;28;20030;-76
2021/01/04 10:06:22;;;;;;;13.73;8.37;;;7.10;78.60;;;;;;4986561;28;20027;-75
2021/01/04 10:08:49;;;;;;;12.57;6.83;;;7.10;78.60;;;;;;4993398;28;20034;-76
2021/01/04 10:11:22;;;;;;;14.10;7.53;;;7.20;78.60;;;;;;4996483;28;20026;-76
2021/01/04 10:13:48;;;;;;;14.27;7.78;;;7.20;78.40;;;;;;4992719;28;20056;-70
2021/01/04 10:16:23;;;;;;;16.17;7.43;;;7.20;78.30;;;;;;4992214;28;20995;-72
2021/01/04 10:19:02;;;;;;;15.20;7.50;;;7.30;78.30;;;;;;4994022;28;20035;-74
2021/01/04 10:21:46;;;;;;;14.65;7.03;;;7.30;78.30;;;;;;4986472;28;20191;-73
2021/01/04 10:24:20;;;;;;;;;;;7.10;78.80;;;;;;4990683;28;20030;-70
2021/01/04 10:26:48;;;;;;;12.23;7.20;;;7.30;77.80;;;;;;4979795;28;19949;-74
2021/01/04 10:29:17;;;;;;;12.57;6.17;;;7.30;77.70;;;;;;4986750;28;20038;-69
2021/01/04 10:31:43;;;;;;;12.73;7.00;;;7.30;77.80;;;;;;4982933;28;20050;-74
2021/01/04 10:34:17;;;;;;;12.50;6.50;;;7.30;77.90;;;;;;4991836;28;20123;-74
2021/01/04 10:36:55;;;;;;;11.40;6.25;;;7.30;77.80;;;;;;4997409;28;20092;-73
2021/01/04 10:39:29;;;;;;;11.35;6.47;;;7.40;77.60;;;;;;4989618;28;20037;-73
2021/01/04 10:42:03;;;;;;;;;;;7.30;78.10;;;;;;4997002;28;20025;-74
2021/01/04 10:44:28;;;;;;;12.27;6.00;;;7.40;77.30;;;;;;4992472;28;19913;-74
2021/01/04 10:46:59;;;;;;;12.40;6.53;;;7.50;77.40;;;;;;4975186;28;20503;-73
2021/01/04 10:49:34;;;;;;;12.57;6.90;;;7.40;77.30;;;;;;4984840;28;20123;-73
2021/01/04 10:52:01;;;;;;;13.73;6.73;;;7.40;77.30;;;;;;4989845;28;20218;-73
2021/01/04 10:54:41;;;;;;;10.97;6.93;;;7.40;77.20;;;;;;4986570;28;20463;-74
2021/01/04 10:57:21;;;;;;;12.88;5.97;;;7.50;77.10;;;;;;4991851;28;20042;-74
2021/01/04 11:00:14;;;;;;;11.82;6.63;;;7.50;77.10;;;;;;4992781;28;20129;-72
2021/01/04 11:02:42;;;;;;;10.73;6.63;;;7.50;76.90;;;;;;4994830;28;20038;-75
2021/01/04 11:05:09;;;;;;;12.60;7.22;;;7.50;76.90;;;;;;4993127;28;20038;-75
2021/01/04 11:07:35;;;;;;;12.25;6.05;;;7.50;76.80;;;;;;4994685;28;20585;-77
2021/01/04 11:10:18;;;;;;;10.90;5.90;;;7.50;76.80;;;;;;4993011;28;20478;-76
2021/01/04 11:12:55;;;;;;;14.57;6.63;;;7.60;76.80;;;;;;4990935;28;20136;-73
2021/01/04 11:15:36;;;;;;;11.63;5.53;;;7.60;76.50;;;;;;4989555;28;20097;-72
2021/01/04 11:18:12;;;;;;;11.55;5.80;;;7.60;76.40;;;;;;4988868;28;20033;-72
2021/01/04 11:20:41;;;;;;;10.00;5.20;;;7.50;76.40;;;;;;5003496;28;20141;-75
2021/01/04 11:23:12;;;;;;;11.60;4.88;;;7.40;76.10;;;;;;4993074;28;20117;-74
2021/01/04 11:25:44;;;;;;;9.98;5.40;;;7.50;76.30;;;;;;4995866;28;20301;-73
2021/01/04 11:28:10;;;;;;;9.45;5.47;;;7.40;76.40;;;;;;4991892;28;20041;-74
2021/01/04 11:30:36;;;;;;;9.65;4.88;;;7.50;76.60;;;;;;4980213;28;20042;-74
2021/01/04 11:33:04;;;;;;;8.70;5.00;;;7.50;76.50;;;;;;4989637;28;20511;-74
2021/01/04 11:35:30;;;;;;;9.80;5.30;;;7.50;76.30;;;;;;4992305;28;20050;-74
2021/01/04 11:37:57;;;;;;;10.65;5.75;;;7.50;76.30;;;;;;4990285;28;20054;-75
2021/01/04 11:40:22;;;;;;;9.05;4.53;;;7.40;76.30;;;;;;4992524;28;20042;-73
2021/01/04 11:42:48;;;;;;;9.32;4.95;;;7.50;76.40;;;;;;4991247;28;20087;-73
2021/01/04 11:45:17;;;;;;;10.27;4.78;;;7.50;76.40;;;;;;4989999;28;20038;-74
2021/01/04 11:47:43;;;;;;;9.10;5.03;;;7.60;76.10;;;;;;4991852;28;20104;-73
2021/01/04 11:50:10;;;;;;;8.10;4.57;;;7.50;76.00;;;;;;4990600;28;20042;-73
2021/01/04 11:52:36;;;;;;;8.73;5.18;;;7.50;76.10;;;;;;4995187;28;20583;-74
2021/01/04 11:55:04;;;;;;;9.20;5.23;;;7.50;76.10;;;;;;4977377;28;20642;-73
2021/01/04 11:57:30;;;;;;;9.10;5.18;;;7.50;76.00;;;;;;4993205;28;20046;-73
2021/01/04 11:59:56;;;;;;;9.43;5.25;;;7.50;76.00;;;;;;4994500;28;20105;-72
2021/01/04 12:02:21;;;;;;;8.77;4.72;;;7.50;76.00;;;;;;4989841;28;20515;-72
2021/01/04 12:04:47;;;;;;;9.00;4.97;;;7.50;76.10;;;;;;4975584;28;20029;-73
2021/01/04 12:07:14;;;;;;;9.70;4.50;;;7.50;76.00;;;;;;4993233;28;20054;-72
2021/01/04 12:09:39;;;;;;;9.75;5.25;;;7.50;75.70;;;;;;4989306;28;20077;-72
2021/01/04 12:12:07;;;;;;;9.25;4.45;;;7.50;75.70;;;;;;4977194;28;20534;-73
2021/01/04 12:14:33;;;;;;;9.82;5.03;;;7.50;75.70;;;;;;4991424;28;20027;-73
2021/01/04 12:17:05;;;;;;;8.98;4.85;;;7.60;75.60;;;;;;4976392;28;20398;-73
2021/01/04 12:19:31;;;;;;;9.77;4.80;;;7.60;75.50;;;;;;4992219;28;20551;-72
2021/01/04 12:22:06;;;;;;;8.55;4.97;;;7.60;75.30;;;;;;4983125;28;20037;-73
2021/01/04 12:24:36;;;;;;;9.23;4.68;;;7.60;75.10;;;;;;4998918;28;20038;-73
2021/01/04 12:27:03;;;;;;;8.55;4.90;;;7.50;74.90;;;;;;4995947;28;20053;-74
2021/01/04 12:29:28;;;;;;;8.67;5.17;;;7.50;75.10;;;;;;4990761;28;20033;-73
2021/01/04 12:31:54;;;;;;;7.37;4.40;;;7.40;75.20;;;;;;5000411;28;20053;-76
2021/01/04 12:34:20;;;;;;;8.30;4.40;;;7.40;75.10;;;;;;5002319;28;20046;-70
2021/01/04 12:36:46;;;;;;;14.73;4.97;;;7.40;75.00;;;;;;4990946;28;20042;-74
2021/01/04 12:39:11;;;;;;;7.90;4.65;;;7.40;75.20;;;;;;4983125;28;20030;-74
2021/01/04 12:41:39;;;;;;;8.95;4.78;;;7.40;75.10;;;;;;5002294;28;20098;-77
2021/01/04 12:44:06;;;;;;;9.68;4.45;;;7.40;75.00;;;;;;5002443;28;20065;-77
2021/01/04 12:46:32;;;;;;;8.37;4.67;;;7.50;75.00;;;;;;5002347;28;20149;-76
2021/01/04 12:48:57;;;;;;;8.95;4.68;;;7.50;74.90;;;;;;4987357;28;20797;-72
2021/01/04 12:51:23;;;;;;;8.98;4.45;;;7.40;74.60;;;;;;4984406;28;20061;-73
2021/01/04 12:53:49;;;;;;;7.05;4.05;;;7.50;74.80;;;;;;4999729;28;20491;-74
2021/01/04 12:56:17;;;;;;;8.43;4.73;;;7.50;74.70;;;;;;4995917;28;20369;-75
2021/01/04 12:58:43;;;;;;;8.52;4.32;;;7.50;74.40;;;;;;4990344;28;20035;-74
2021/01/04 13:01:11;;;;;;;9.73;4.53;;;7.60;74.30;;;;;;4992665;28;20113;-74
2021/01/04 13:03:36;;;;;;;10.07;4.87;;;7.60;74.40;;;;;;4991567;28;20068;-76
2021/01/04 13:06:02;;;;;;;8.80;4.40;;;7.60;74.30;;;;;;4993689;28;20160;-75
2021/01/04 13:08:28;;;;;;;7.77;4.20;;;7.60;74.10;;;;;;4992691;28;20039;-77
2021/01/04 13:10:53;;;;;;;8.00;4.53;;;7.60;74.00;;;;;;4994627;28;20430;-75
2021/01/04 13:13:19;;;;;;;6.35;3.55;;;7.60;73.70;;;;;;4993545;28;20104;-75
2021/01/04 13:15:45;;;;;;;9.23;5.10;;;7.50;73.90;;;;;;4993827;28;20072;-75
2021/01/04 13:18:10;;;;;;;8.67;4.27;;;7.50;73.90;;;;;;4990566;28;20065;-70
2021/01/04 13:20:36;;;;;;;7.40;3.85;;;7.50;74.00;;;;;;4978823;28;20070;-69
2021/01/04 13:23:01;;;;;;;7.80;4.25;;;7.50;73.90;;;;;;4987850;28;20065;-69
2021/01/04 13:25:27;;;;;;;8.20;4.25;;;7.50;73.70;;;;;;4989246;28;20091;-72
2021/01/04 13:27:53;;;;;;;8.25;4.22;;;7.50;73.70;;;;;;4971131;28;20348;-69
2021/01/04 13:30:19;;;;;;;10.45;4.10;;;7.50;73.60;;;;;;4989983;28;20117;-70
2021/01/04 13:32:48;;;;;;;8.95;4.43;;;7.50;73.40;;;;;;4990632;28;20038;-72
2021/01/04 13:35:14;;;;;;;7.03;3.90;;;7.50;73.20;;;;;;4989181;28;20267;-72
2021/01/04 13:37:40;;;;;;;9.48;3.92;;;7.50;73.10;;;;;;4982095;28;20583;-73
2021/01/04 13:40:06;;;;;;;8.70;3.65;;;7.50;73.30;;;;;;4983258;28;20104;-75